Spokane, WA

11:30 AM PDT on August 26, 2016 (GMT -0700)
West Central | | Change Station
Active Advisory: Fire Weather Watch

Elev 1890 ft 47.67 °N, 117.45 °W | Updated 1 second ago

Scattered Clouds
Scattered Clouds
79.0 °F
Feels Like 79 °F
N
2.3
Wind Variable Wind from West
Gusts 2.3 mph

Today
High -- | Low -- °F
--% Chance of Precip.
Yesterday
High -- | Low -- °F
Precip. -- in
Pressure 29.95 in
Visibility 10.0 miles
Clouds Scattered Clouds 16000 ft
Heat Index 79 °F
Dew Point 46 °F
Humidity 31%
Rainfall 0.00 in
Snow Depth Not available.
6:01 AM 7:40 PM
Waning Crescent, 32% visible
METAR KGEG 261753Z 08003KT 10SM SCT160 24/06 A3000 RMK AO2 SLP141 T02390056 10239 20156 58008
Pressure 29.95 in
Visibility 10.0 miles
Clouds Scattered Clouds 16000 ft
Heat Index 79 °F
Dew Point 46 °F
Humidity 31%
Rainfall 0.00 in
Snow Depth Not available.
6:01 AM 7:40 PM
Waning Crescent, 32% visible
METAR KGEG 261753Z 08003KT 10SM SCT160 24/06 A3000 RMK AO2 SLP141 T02390056 10239 20156 58008

10-Day Weather Forecast

Almanac

Astronomy

Aug. 26, 2016 Rise Set
Actual Time
Civil Twilight
Nautical Twilight
Astronomical Twilight
Moon
Length of Visible Light
Length of Day
Tomorrow will be .
, % of the Moon is Illuminated

Today's Extremes

State Highs State Lows

Community

WunderPhotos

Upload Photos

1,935,169 photos uploaded!

WunderBlog® & News

Nearby

Air Quality

  Air Quality AQ Index Pollutant
Not available.

Snow Depth

Station Depth Elevation

Earthquake Activity

City Distance Mag. Time & Date
Minimum magnitude displayed is 2.5.

Coastal Water Temperatures

Place Temperature

Stations

Nearby Weather Stations

Station Location Temp. Windchill Dew Point Humidity Wind Precip. Elev Updated Type
                   

Watches & Warnings

Fire Weather Watch
Issued: 3:35 AM PDT Aug. 26, 2016 – National Weather Service

... Fire Weather Watch remains in effect from Saturday afternoon
through Saturday evening for gusty winds and low relative
humidity for northern and central Idaho Panhandle and East
Washington Palouse and Spokane area...

* affected area: fire weather zone 101 northern and central
Idaho Panhandle (zone 101) and fire weather zone 674 East
Washington Palouse and Spokane area (zone 674).

* Winds: southwest 10 to 20 mph with gusts up to 30 mph.

* Relative humidities: 13 to 27 percent.

* Impacts: dry... warm... and breezy conditions will promote rapid
fire spread with any new or existing fires.

Precautionary/preparedness actions...

A Fire Weather Watch means that critical fire weather conditions
are forecast to occur. Listen for later forecasts and possible
red flag warnings.